Time;durP1;ratioP1;P1;durP2;ratioP2;P2;SDS_P1;SDS_P2;PMS_P1;PMS_P2;Temp;Humidity;BMP_temperature;BMP_pressure;BME280_temperature;BME280_humidity;BME280_pressure;Samples;Min_cycle;Max_cycle;Signal;HPM_P1;HPM_P2
2021/06/05 00:02:22;;;;;;;;;16.00;15.75;;;;;;;;3724527;37;20674;-63
2021/06/05 00:04:48;;;;;;;;;17.75;16.25;;;;;;;;3724601;38;20662;-60
2021/06/05 00:07:14;;;;;;;;;16.25;15.75;;;;;;;;3725067;37;20659;-59
2021/06/05 00:09:41;;;;;;;;;15.00;15.00;;;;;;;;3725059;37;20633;-63
2021/06/05 00:12:08;;;;;;;;;15.25;13.75;;;;;;;;3725022;37;18478;-61
2021/06/05 00:14:35;;;;;;;;;15.50;15.50;;;;;;;;3725051;37;20643;-62
2021/06/05 00:17:01;;;;;;;;;14.25;14.25;;;;;;;;3730491;38;20663;-62
2021/06/05 00:19:28;;;;;;;;;13.50;13.50;;;;;;;;3724960;37;20664;-62
2021/06/05 00:21:54;;;;;;;;;13.50;13.25;;;;;;;;3724924;37;20629;-59
2021/06/05 00:24:21;;;;;;;;;17.75;17.25;;;;;;;;3724787;37;20634;-60
2021/06/05 00:26:47;;;;;;;;;15.25;15.25;;;;;;;;3724833;37;20612;-62
2021/06/05 00:29:14;;;;;;;;;16.50;15.75;;;;;;;;3725213;37;20608;-61
2021/06/05 00:31:40;;;;;;;;;13.25;13.25;;;;;;;;3724812;38;20643;-60
2021/06/05 00:34:06;;;;;;;;;17.25;16.25;;;;;;;;3725294;37;18449;-60
2021/06/05 00:36:34;;;;;;;;;14.00;14.00;;;;;;;;3725107;38;20627;-60
2021/06/05 00:39:02;;;;;;;;;16.25;16.25;;;;;;;;3725439;38;20610;-60
2021/06/05 00:41:29;;;;;;;;;13.50;13.50;;;;;;;;3726776;37;20597;-59
2021/06/05 00:43:58;;;;;;;;;16.50;15.25;;;;;;;;3724900;37;20654;-59
2021/06/05 00:46:25;;;;;;;;;12.50;12.50;;;;;;;;3725126;37;20577;-62
2021/06/05 00:48:51;;;;;;;;;13.75;13.75;;;;;;;;3724995;38;20564;-59
2021/06/05 00:51:19;;;;;;;;;14.00;13.00;;;;;;;;3724708;38;20593;-63
2021/06/05 00:53:46;;;;;;;;;18.00;16.00;;;;;;;;3725079;38;20602;-62
2021/06/05 00:56:13;;;;;;;;;14.50;13.75;;;;;;;;3724694;37;20585;-62
2021/06/05 00:58:39;;;;;;;;;15.00;15.00;;;;;;;;3724701;38;20577;-60
2021/06/05 01:01:22;;;;;;;;;15.25;14.00;;;;;;;;3725080;37;20604;-63
2021/06/05 01:03:48;;;;;;;;;14.75;14.75;;;;;;;;3724976;38;20548;-59
2021/06/05 01:06:20;;;;;;;;;13.00;12.75;;;;;;;;3725115;38;20559;-59
2021/06/05 01:09:03;;;;;;;;;13.75;13.25;;;;;;;;3725002;38;20564;-62
2021/06/05 01:11:42;;;;;;;;;9.75;9.75;;;;;;;;3724850;37;20586;-62
2021/06/05 01:14:23;;;;;;;;;14.50;13.75;;;;;;;;3724955;37;20520;-58
2021/06/05 01:16:57;;;;;;;;;14.75;14.75;;;;;;;;3724884;38;20574;-59
2021/06/05 01:19:33;;;;;;;;;16.75;15.75;;;;;;;;3724891;38;20565;-63
2021/06/05 01:22:06;;;;;;;;;11.25;11.25;;;;;;;;3725041;38;20540;-58
2021/06/05 01:24:44;;;;;;;;;16.00;15.00;;;;;;;;3725019;37;20539;-63
2021/06/05 01:27:25;;;;;;;;;17.75;16.75;;;;;;;;3725077;38;20558;-60
2021/06/05 01:29:55;;;;;;;;;14.00;14.00;;;;;;;;3724870;37;20548;-61
2021/06/05 01:32:23;;;;;;;;;14.00;13.00;;;;;;;;3724979;38;20526;-61
2021/06/05 01:34:50;;;;;;;;;14.25;14.25;;;;;;;;3724970;37;20509;-63
2021/06/05 01:37:17;;;;;;;;;13.50;13.50;;;;;;;;3725259;38;20537;-58
2021/06/05 01:39:46;;;;;;;;;13.75;13.75;;;;;;;;3725206;37;20517;-60
2021/06/05 01:42:16;;;;;;;;;15.25;14.75;;;;;;;;3725344;37;20514;-62
2021/06/05 01:44:48;;;;;;;;;14.25;14.25;;;;;;;;3724839;38;20535;-61
2021/06/05 01:47:15;;;;;;;;;15.75;14.00;;;;;;;;3725486;37;20541;-58
2021/06/05 01:49:42;;;;;;;;;14.75;12.75;;;;;;;;3725311;37;20503;-60
2021/06/05 01:52:11;;;;;;;;;10.75;10.75;;;;;;;;3726202;38;20527;-61
2021/06/05 01:54:45;;;;;;;;;15.25;15.25;;;;;;;;3729811;37;20473;-60
2021/06/05 01:57:17;;;;;;;;;14.00;13.00;;;;;;;;3729797;38;20497;-61
2021/06/05 01:59:45;;;;;;;;;14.75;14.75;;;;;;;;3729429;37;20490;-61
2021/06/05 02:02:12;;;;;;;;;16.00;15.00;;;;;;;;3726753;37;20496;-62
2021/06/05 02:04:38;;;;;;;;;15.50;14.25;;;;;;;;3724994;37;20507;-59
2021/06/05 02:07:09;;;;;;;;;14.00;14.00;;;;;;;;3725005;37;20496;-63
2021/06/05 02:09:36;;;;;;;;;18.25;17.75;;;;;;;;3724932;38;20481;-61
2021/06/05 02:12:05;;;;;;;;;7.50;7.50;;;;;;;;3724976;37;20483;-59
2021/06/05 02:14:34;;;;;;;;;14.00;14.00;;;;;;;;3724817;37;20434;-60
2021/06/05 02:17:03;;;;;;;;;15.75;13.00;;;;;;;;3725071;37;20487;-59
2021/06/05 02:19:32;;;;;;;;;16.50;16.50;;;;;;;;3724918;38;20478;-63
2021/06/05 02:22:01;;;;;;;;;17.50;16.75;;;;;;;;3724955;38;20499;-59
2021/06/05 02:24:29;;;;;;;;;15.75;14.75;;;;;;;;3724875;38;20457;-59
2021/06/05 02:26:56;;;;;;;;;14.75;13.75;;;;;;;;3724770;38;20472;-63
2021/06/05 02:29:28;;;;;;;;;14.50;14.50;;;;;;;;3724721;37;20479;-59
2021/06/05 02:31:54;;;;;;;;;14.00;14.00;;;;;;;;3725053;37;20445;-60
2021/06/05 02:34:22;;;;;;;;;15.75;15.75;;;;;;;;3724897;38;20441;-59
2021/06/05 02:36:52;;;;;;;;;13.25;10.75;;;;;;;;3725059;37;20441;-59
2021/06/05 02:39:19;;;;;;;;;15.00;14.00;;;;;;;;3724727;38;20435;-60
2021/06/05 02:41:48;;;;;;;;;15.25;15.25;;;;;;;;3725010;37;20463;-60
2021/06/05 02:44:16;;;;;;;;;15.00;15.00;;;;;;;;3724586;37;20449;-64
2021/06/05 02:46:43;;;;;;;;;16.25;15.50;;;;;;;;3725120;37;20429;-60
2021/06/05 02:49:24;;;;;;;;;14.25;14.00;;;;;;;;3724945;37;20427;-60
2021/06/05 02:51:52;;;;;;;;;16.50;15.75;;;;;;;;3724912;38;20459;-62
2021/06/05 02:54:21;;;;;;;;;14.75;14.75;;;;;;;;3724963;37;20453;-60
2021/06/05 02:56:47;;;;;;;;;17.00;17.00;;;;;;;;3725044;38;20438;-61
2021/06/05 02:59:12;;;;;;;;;12.00;12.00;;;;;;;;3724890;37;20445;-60
2021/06/05 03:01:41;;;;;;;;;16.00;16.00;;;;;;;;3725053;37;18225;-61
2021/06/05 03:04:07;;;;;;;;;15.75;15.75;;;;;;;;3724609;38;20408;-59
2021/06/05 03:06:33;;;;;;;;;17.25;16.75;;;;;;;;3724977;38;20399;-62
2021/06/05 03:08:59;;;;;;;;;16.25;15.50;;;;;;;;3724738;38;20421;-61
2021/06/05 03:11:27;;;;;;;;;14.50;14.25;;;;;;;;3725060;38;20391;-60
2021/06/05 03:13:53;;;;;;;;;16.00;15.25;;;;;;;;3725039;38;20402;-62
2021/06/05 03:16:20;;;;;;;;;12.25;12.25;;;;;;;;3725005;38;20393;-61
2021/06/05 03:18:46;;;;;;;;;15.00;14.00;;;;;;;;3725250;38;20413;-60
2021/06/05 03:21:15;;;;;;;;;18.50;16.25;;;;;;;;3727039;38;20395;-63
2021/06/05 03:23:46;;;;;;;;;16.50;16.00;;;;;;;;3725175;38;20405;-60
2021/06/05 03:26:13;;;;;;;;;15.00;15.00;;;;;;;;3725049;37;20406;-60
2021/06/05 03:28:39;;;;;;;;;14.50;14.50;;;;;;;;3724896;38;20402;-59
2021/06/05 03:31:05;;;;;;;;;13.75;13.25;;;;;;;;3725008;37;20390;-62
2021/06/05 03:33:32;;;;;;;;;17.50;16.75;;;;;;;;3725147;37;18206;-63
2021/06/05 03:36:00;;;;;;;;;17.00;16.00;;;;;;;;3725247;37;20360;-60
2021/06/05 03:38:27;;;;;;;;;15.50;15.00;;;;;;;;3724929;38;20385;-60
2021/06/05 03:40:54;;;;;;;;;18.50;17.75;;;;;;;;3724608;37;20356;-59
2021/06/05 03:43:22;;;;;;;;;15.75;15.00;;;;;;;;3724912;38;20358;-60
2021/06/05 03:45:48;;;;;;;;;19.25;18.25;;;;;;;;3724760;37;20371;-62
2021/06/05 03:48:14;;;;;;;;;14.00;14.00;;;;;;;;3725082;38;20381;-60
2021/06/05 03:50:43;;;;;;;;;18.25;16.50;;;;;;;;3724951;37;20370;-59
2021/06/05 03:53:10;;;;;;;;;14.00;13.75;;;;;;;;3725015;37;18164;-59
2021/06/05 03:55:36;;;;;;;;;13.25;13.00;;;;;;;;3725105;37;20344;-59
2021/06/05 03:58:03;;;;;;;;;18.50;17.50;;;;;;;;3724979;37;20349;-61
2021/06/05 04:00:32;;;;;;;;;15.25;13.75;;;;;;;;3725101;38;20342;-59
2021/06/05 04:02:59;;;;;;;;;17.50;17.25;;;;;;;;3724695;37;20329;-59
2021/06/05 04:05:26;;;;;;;;;15.00;15.00;;;;;;;;3727316;37;20336;-62
2021/06/05 04:07:53;;;;;;;;;15.25;15.00;;;;;;;;3730265;37;20335;-63
2021/06/05 04:10:20;;;;;;;;;17.25;17.00;;;;;;;;3730586;38;20338;-62
2021/06/05 04:12:46;;;;;;;;;16.50;16.50;;;;;;;;3725835;37;20314;-61
2021/06/05 04:15:13;;;;;;;;;27.00;26.25;;;;;;;;3725495;37;20324;-60
2021/06/05 04:17:40;;;;;;;;;17.75;17.50;;;;;;;;3725397;37;18140;-61
2021/06/05 04:20:08;;;;;;;;;28.50;26.50;;;;;;;;3724976;38;20304;-59
2021/06/05 04:22:36;;;;;;;;;22.00;22.00;;;;;;;;3725288;37;18149;-60
2021/06/05 04:25:02;;;;;;;;;26.00;24.75;;;;;;;;3725087;37;20323;-59
2021/06/05 04:27:28;;;;;;;;;24.50;21.50;;;;;;;;3725089;38;20300;-59
2021/06/05 04:29:54;;;;;;;;;23.00;22.50;;;;;;;;3725170;38;20310;-59
2021/06/05 04:32:22;;;;;;;;;21.75;21.00;;;;;;;;3725137;38;20312;-61
2021/06/05 04:34:48;;;;;;;;;24.50;22.50;;;;;;;;3725053;37;20296;-61
2021/06/05 04:37:14;;;;;;;;;21.25;20.50;;;;;;;;3724715;38;20308;-59
2021/06/05 04:39:40;;;;;;;;;19.25;19.25;;;;;;;;3725042;38;20285;-59
2021/06/05 04:42:07;;;;;;;;;59.75;50.00;;;;;;;;3724955;37;18118;-60
2021/06/05 04:44:34;;;;;;;;;31.25;27.75;;;;;;;;3724680;37;20342;-59
2021/06/05 04:47:01;;;;;;;;;22.75;22.00;;;;;;;;3724440;38;20288;-64
2021/06/05 04:49:27;;;;;;;;;26.75;25.75;;;;;;;;3724181;38;20287;-62
2021/06/05 04:51:53;;;;;;;;;23.00;20.75;;;;;;;;3724598;38;20274;-62
2021/06/05 04:54:19;;;;;;;;;21.25;21.25;;;;;;;;3724768;37;20285;-61
2021/06/05 04:56:49;;;;;;;;;24.00;23.00;;;;;;;;3724821;38;18080;-62
2021/06/05 04:59:19;;;;;;;;;19.75;18.75;;;;;;;;3724966;38;18086;-60
2021/06/05 05:01:46;;;;;;;;;19.50;19.50;;;;;;;;3724837;38;20243;-60
2021/06/05 05:04:12;;;;;;;;;18.00;18.00;;;;;;;;3725131;38;20270;-62
2021/06/05 05:06:38;;;;;;;;;20.50;19.50;;;;;;;;3725109;37;20229;-59
2021/06/05 05:09:05;;;;;;;;;19.75;18.75;;;;;;;;3724798;38;20267;-61
2021/06/05 05:11:32;;;;;;;;;18.50;18.50;;;;;;;;3725074;37;18036;-61
2021/06/05 05:13:58;;;;;;;;;19.00;19.00;;;;;;;;3725049;37;20255;-61
2021/06/05 05:16:30;;;;;;;;;22.50;22.00;;;;;;;;3724784;37;20236;-59
2021/06/05 05:18:57;;;;;;;;;15.25;15.25;;;;;;;;3725151;37;18061;-61
2021/06/05 05:21:25;;;;;;;;;13.50;13.00;;;;;;;;3725016;38;20203;-64
2021/06/05 05:23:51;;;;;;;;;16.00;16.00;;;;;;;;3724868;37;20227;-64
2021/06/05 05:26:19;;;;;;;;;15.50;15.25;;;;;;;;3725043;37;20221;-64
2021/06/05 05:28:49;;;;;;;;;17.00;15.75;;;;;;;;3725186;37;20223;-63
2021/06/05 05:31:17;;;;;;;;;17.50;17.50;;;;;;;;3724678;37;20215;-65
2021/06/05 05:33:47;;;;;;;;;17.75;17.75;;;;;;;;3725020;38;20250;-66
2021/06/05 05:36:18;;;;;;;;;17.00;16.00;;;;;;;;3724751;37;20220;-63
2021/06/05 05:38:44;;;;;;;;;17.00;17.00;;;;;;;;3724897;37;20214;-66
2021/06/05 05:41:12;;;;;;;;;14.50;13.75;;;;;;;;3724973;37;20179;-64
2021/06/05 05:43:40;;;;;;;;;15.25;15.25;;;;;;;;3725164;37;20216;-66
2021/06/05 05:46:08;;;;;;;;;14.50;14.00;;;;;;;;3725203;37;20205;-64
2021/06/05 05:48:36;;;;;;;;;16.00;16.00;;;;;;;;3724825;38;20229;-64
2021/06/05 05:51:03;;;;;;;;;14.75;14.75;;;;;;;;3724881;38;20182;-64
2021/06/05 05:53:30;;;;;;;;;18.25;18.25;;;;;;;;3724853;37;20187;-66
2021/06/05 05:55:57;;;;;;;;;11.75;11.50;;;;;;;;3725109;37;20186;-65
2021/06/05 05:58:28;;;;;;;;;15.50;14.75;;;;;;;;3725784;37;20195;-65
2021/06/05 06:00:55;;;;;;;;;14.00;14.00;;;;;;;;3726853;37;20171;-65
2021/06/05 06:03:21;;;;;;;;;15.25;14.25;;;;;;;;3725075;37;20174;-67
2021/06/05 06:05:48;;;;;;;;;17.25;16.50;;;;;;;;3725384;38;20166;-64
2021/06/05 06:08:15;;;;;;;;;15.50;15.50;;;;;;;;3725055;37;20185;-64
2021/06/05 06:10:43;;;;;;;;;15.75;14.75;;;;;;;;3724713;38;20154;-64
2021/06/05 06:13:10;;;;;;;;;16.75;14.25;;;;;;;;3724998;37;20179;-68
2021/06/05 06:15:36;;;;;;;;;13.50;13.50;;;;;;;;3725294;37;20177;-66
2021/06/05 06:18:03;;;;;;;;;17.00;16.75;;;;;;;;3725528;37;20177;-65
2021/06/05 06:20:39;;;;;;;;;15.00;15.00;;;;;;;;3725113;37;20163;-65
2021/06/05 06:23:05;;;;;;;;;24.75;23.75;;;;;;;;3725497;38;20144;-65
2021/06/05 06:25:32;;;;;;;;;26.75;25.00;;;;;;;;3725034;37;20130;-66
2021/06/05 06:27:59;;;;;;;;;17.00;15.50;;;;;;;;3725105;37;17968;-67
2021/06/05 06:30:27;;;;;;;;;16.25;16.25;;;;;;;;3725665;38;20142;-67
2021/06/05 06:32:53;;;;;;;;;11.25;11.00;;;;;;;;3725335;38;20166;-67
2021/06/05 06:35:20;;;;;;;;;12.75;12.75;;;;;;;;3725365;38;20138;-67
2021/06/05 06:37:47;;;;;;;;;12.50;11.75;;;;;;;;3725196;37;20137;-68
2021/06/05 06:40:15;;;;;;;;;11.00;11.00;;;;;;;;3725114;37;20252;-67
2021/06/05 06:42:42;;;;;;;;;12.50;12.00;;;;;;;;3724170;37;20119;-67
2021/06/05 06:45:10;;;;;;;;;12.50;12.50;;;;;;;;3724978;38;20136;-66
2021/06/05 06:47:37;;;;;;;;;15.00;14.25;;;;;;;;3724745;37;20203;-63
2021/06/05 06:50:05;;;;;;;;;12.50;12.25;;;;;;;;3725172;38;20108;-64
2021/06/05 06:52:31;;;;;;;;;12.75;12.75;;;;;;;;3724988;37;20067;-64
2021/06/05 06:54:58;;;;;;;;;11.50;11.50;;;;;;;;3724827;37;20117;-65
2021/06/05 06:57:25;;;;;;;;;14.50;14.50;;;;;;;;3724948;37;20119;-66
2021/06/05 06:59:51;;;;;;;;;13.00;13.00;;;;;;;;3724707;38;20098;-64
2021/06/05 07:02:17;;;;;;;;;15.75;14.50;;;;;;;;3724697;38;20085;-65
2021/06/05 07:04:43;;;;;;;;;14.25;13.25;;;;;;;;3724658;37;17913;-65
2021/06/05 07:07:10;;;;;;;;;12.00;12.00;;;;;;;;3724794;38;17905;-64
2021/06/05 07:09:36;;;;;;;;;15.00;15.00;;;;;;;;3724587;38;17926;-64
2021/06/05 07:12:03;;;;;;;;;15.00;14.00;;;;;;;;3724825;38;20084;-63
2021/06/05 07:14:29;;;;;;;;;12.25;11.25;;;;;;;;3724706;37;20086;-63
2021/06/05 07:16:59;;;;;;;;;13.75;13.75;;;;;;;;3725173;38;20178;-64
2021/06/05 07:19:26;;;;;;;;;13.50;13.50;;;;;;;;3725196;37;20102;-65
2021/06/05 07:21:53;;;;;;;;;16.75;16.75;;;;;;;;3725262;38;20250;-64
2021/06/05 07:24:25;;;;;;;;;16.00;16.00;;;;;;;;3725407;37;20076;-65
2021/06/05 07:26:51;;;;;;;;;14.50;14.50;;;;;;;;3725268;37;20057;-65
2021/06/05 07:29:18;;;;;;;;;15.25;14.50;;;;;;;;3725412;37;20062;-64
2021/06/05 07:31:51;;;;;;;;;15.25;15.25;;;;;;;;3725047;37;17870;-64
2021/06/05 07:34:24;;;;;;;;;15.25;14.75;;;;;;;;3725361;37;20066;-65
2021/06/05 07:36:52;;;;;;;;;17.00;16.00;;;;;;;;3725312;37;20090;-63
2021/06/05 07:39:20;;;;;;;;;17.50;17.50;;;;;;;;3725684;38;20062;-64
2021/06/05 07:41:48;;;;;;;;;19.50;17.25;;;;;;;;3725362;37;20051;-64
2021/06/05 07:44:14;;;;;;;;;14.00;14.00;;;;;;;;3724933;38;20062;-64
2021/06/05 07:46:41;;;;;;;;;15.25;14.25;;;;;;;;3725475;38;20056;-65
2021/06/05 07:49:07;;;;;;;;;15.00;14.75;;;;;;;;3725163;37;20058;-65
2021/06/05 07:51:33;;;;;;;;;15.25;15.00;;;;;;;;3725213;38;20067;-65
2021/06/05 07:54:01;;;;;;;;;11.00;11.00;;;;;;;;3725106;37;20044;-64
2021/06/05 07:56:27;;;;;;;;;16.75;16.75;;;;;;;;3724841;38;20027;-65
2021/06/05 07:58:56;;;;;;;;;18.50;17.25;;;;;;;;3729064;37;20016;-64
2021/06/05 08:01:27;;;;;;;;;15.50;14.75;;;;;;;;3731694;37;17832;-63
2021/06/05 08:03:53;;;;;;;;;16.00;16.00;;;;;;;;3730577;38;20030;-63
2021/06/05 08:06:20;;;;;;;;;13.75;13.75;;;;;;;;3725499;37;20019;-62
2021/06/05 08:08:47;;;;;;;;;14.00;14.00;;;;;;;;3725385;38;20020;-63
2021/06/05 08:11:17;;;;;;;;;12.00;12.00;;;;;;;;3724971;37;20035;-64
2021/06/05 08:13:45;;;;;;;;;15.25;15.25;;;;;;;;3725284;38;20016;-63
2021/06/05 08:16:12;;;;;;;;;14.75;14.75;;;;;;;;3725509;38;20010;-64
2021/06/05 08:18:38;;;;;;;;;13.25;13.25;;;;;;;;3725380;38;20039;-63
2021/06/05 08:21:07;;;;;;;;;14.75;14.75;;;;;;;;3725257;38;20038;-64
2021/06/05 08:23:39;;;;;;;;;12.50;12.50;;;;;;;;3725322;38;17822;-63
2021/06/05 08:26:09;;;;;;;;;14.00;14.00;;;;;;;;3725088;37;19940;-64
2021/06/05 08:28:36;;;;;;;;;12.00;12.00;;;;;;;;3725026;37;20011;-65
2021/06/05 08:31:05;;;;;;;;;12.50;12.25;;;;;;;;3725301;38;19997;-66
2021/06/05 08:33:31;;;;;;;;;13.75;13.75;;;;;;;;3724908;37;19984;-63
2021/06/05 08:35:59;;;;;;;;;12.25;12.25;;;;;;;;3725074;38;20010;-63
2021/06/05 08:38:26;;;;;;;;;11.50;11.50;;;;;;;;3725677;37;19995;-63
2021/06/05 08:41:13;;;;;;;;;14.50;14.25;;;;;;;;3726774;37;19953;-66
2021/06/05 08:43:57;;;;;;;;;12.25;11.75;;;;;;;;3724959;38;19997;-64
2021/06/05 08:46:28;;;;;;;;;13.00;12.75;;;;;;;;3725129;38;20001;-63
2021/06/05 08:48:58;;;;;;;;;10.00;10.00;;;;;;;;3725502;37;19975;-66
2021/06/05 08:51:47;;;;;;;;;12.00;12.00;;;;;;;;3724888;37;19977;-63
2021/06/05 08:54:40;;;;;;;;;11.00;10.00;;;;;;;;3725276;38;19958;-65
2021/06/05 08:57:24;;;;;;;;;10.75;10.75;;;;;;;;3724878;37;19959;-65
2021/06/05 08:59:50;;;;;;;;;9.50;9.50;;;;;;;;3725062;37;19994;-66
2021/06/05 09:02:17;;;;;;;;;12.25;11.25;;;;;;;;3725000;37;19934;-64
2021/06/05 09:04:43;;;;;;;;;10.00;10.00;;;;;;;;3724802;37;19942;-64
2021/06/05 09:07:11;;;;;;;;;9.50;9.00;;;;;;;;3725289;38;19936;-64
2021/06/05 09:09:42;;;;;;;;;11.50;11.25;;;;;;;;3725392;37;17756;-63
2021/06/05 09:12:08;;;;;;;;;10.00;10.00;;;;;;;;3724791;38;19971;-64
2021/06/05 09:14:34;;;;;;;;;10.00;10.00;;;;;;;;3725204;38;19931;-63
2021/06/05 09:17:14;;;;;;;;;9.00;9.00;;;;;;;;3725173;38;19937;-64
2021/06/05 09:19:41;;;;;;;;;10.25;9.75;;;;;;;;3725307;37;19832;-65
2021/06/05 09:22:18;;;;;;;;;10.00;9.00;;;;;;;;3724893;37;19857;-66
2021/06/05 09:24:55;;;;;;;;;6.50;6.50;;;;;;;;3725225;37;19920;-64
2021/06/05 09:27:25;;;;;;;;;7.50;7.50;;;;;;;;3725099;38;19857;-64
2021/06/05 09:30:05;;;;;;;;;9.00;9.00;;;;;;;;3725226;38;19867;-65
2021/06/05 09:32:36;;;;;;;;;7.00;7.00;;;;;;;;3725099;37;19915;-64
2021/06/05 09:35:22;;;;;;;;;8.00;8.00;;;;;;;;3725377;37;19854;-64
2021/06/05 09:37:54;;;;;;;;;6.75;6.75;;;;;;;;3725113;38;19882;-66
2021/06/05 09:40:33;;;;;;;;;6.00;6.00;;;;;;;;3725225;38;19886;-67
2021/06/05 09:43:30;;;;;;;;;9.00;9.00;;;;;;;;3725191;37;19855;-66
2021/06/05 09:46:23;;;;;;;;;9.25;9.25;;;;;;;;3725989;38;19873;-64
2021/06/05 09:48:50;;;;;;;;;8.00;7.50;;;;;;;;3724862;37;19844;-65
2021/06/05 09:51:27;;;;;;;;;7.50;7.25;;;;;;;;3725113;37;19878;-66
2021/06/05 09:53:57;;;;;;;;;7.00;7.00;;;;;;;;3725190;37;19860;-64
2021/06/05 09:56:26;;;;;;;;;7.00;6.75;;;;;;;;3724930;37;19840;-63
2021/06/05 09:59:06;;;;;;;;;7.75;7.75;;;;;;;;3725199;38;19821;-63
2021/06/05 10:01:34;;;;;;;;;8.00;8.00;;;;;;;;3724853;38;19814;-64
2021/06/05 10:04:16;;;;;;;;;10.00;8.75;;;;;;;;3724771;38;19845;-63
2021/06/05 10:07:00;;;;;;;;;7.00;7.00;;;;;;;;3725187;38;19839;-64
2021/06/05 10:09:35;;;;;;;;;7.00;6.75;;;;;;;;3725090;38;19812;-65
2021/06/05 10:12:04;;;;;;;;;8.25;7.75;;;;;;;;3725000;38;19840;-64
2021/06/05 10:14:45;;;;;;;;;8.25;8.25;;;;;;;;3725013;37;19818;-65
2021/06/05 10:17:22;;;;;;;;;7.00;7.00;;;;;;;;3724829;37;19811;-64
2021/06/05 10:20:14;;;;;;;;;6.75;6.00;;;;;;;;3724744;37;19810;-64
2021/06/05 10:22:41;;;;;;;;;6.00;6.00;;;;;;;;3725001;38;19802;-65
2021/06/05 10:25:39;;;;;;;;;5.25;5.25;;;;;;;;3724598;37;19807;-64
2021/06/05 10:28:13;;;;;;;;;6.00;6.00;;;;;;;;3725013;38;19825;-65
2021/06/05 10:31:00;;;;;;;;;5.75;5.25;;;;;;;;3724652;38;19789;-66
2021/06/05 10:33:59;;;;;;;;;7.75;7.50;;;;;;;;3725078;37;19782;-65
2021/06/05 10:36:31;;;;;;;;;7.00;6.00;;;;;;;;3725137;37;19809;-65
2021/06/05 10:39:00;;;;;;;;;5.00;5.00;;;;;;;;3725239;37;19759;-66
2021/06/05 10:41:29;;;;;;;;;5.00;5.00;;;;;;;;3724627;38;19796;-66
2021/06/05 10:43:55;;;;;;;;;6.00;6.00;;;;;;;;3724976;37;19790;-65
2021/06/05 10:46:53;;;;;;;;;6.25;6.00;;;;;;;;3725078;37;19855;-65
2021/06/05 10:49:49;;;;;;;;;6.75;6.75;;;;;;;;3725318;37;19772;-68
2021/06/05 10:52:35;;;;;;;;;7.25;6.25;;;;;;;;3725200;37;19787;-68
2021/06/05 10:55:23;;;;;;;;;8.75;8.75;;;;;;;;3725251;37;19746;-67
2021/06/05 10:57:52;;;;;;;;;6.00;5.00;;;;;;;;3725022;37;19743;-66
2021/06/05 11:00:46;;;;;;;;;6.00;6.00;;;;;;;;3725070;38;19759;-67
2021/06/05 11:03:43;;;;;;;;;6.00;6.00;;;;;;;;3725346;37;19762;-67
2021/06/05 11:06:14;;;;;;;;;6.00;6.00;;;;;;;;3725484;38;19746;-67
2021/06/05 11:09:09;;;;;;;;;6.50;6.50;;;;;;;;3725333;38;19730;-65
2021/06/05 11:11:44;;;;;;;;;9.00;7.00;;;;;;;;3725150;37;19727;-67
2021/06/05 11:14:35;;;;;;;;;4.25;4.25;;;;;;;;3725481;38;19730;-67
2021/06/05 11:17:21;;;;;;;;;6.75;6.75;;;;;;;;3725715;38;19762;-66
2021/06/05 11:19:51;;;;;;;;;5.00;5.00;;;;;;;;3730947;37;19781;-65
2021/06/05 11:22:22;;;;;;;;;7.25;6.75;;;;;;;;3730180;37;19716;-65
2021/06/05 11:25:26;;;;;;;;;8.00;8.00;;;;;;;;3725252;37;19707;-67
2021/06/05 11:27:53;;;;;;;;;7.25;7.25;;;;;;;;3725724;37;19724;-66
2021/06/05 11:30:40;;;;;;;;;6.00;6.00;;;;;;;;3739982;38;19720;-65
2021/06/05 11:33:13;;;;;;;;;5.75;5.50;;;;;;;;3739730;37;19704;-65
2021/06/05 11:35:54;;;;;;;;;6.00;6.00;;;;;;;;3740705;38;19699;-66
2021/06/05 11:38:39;;;;;;;;;6.25;6.25;;;;;;;;3730996;38;19706;-65
2021/06/05 11:41:31;;;;;;;;;8.50;8.00;;;;;;;;3725138;37;19686;-65
2021/06/05 11:44:16;;;;;;;;;8.25;8.25;;;;;;;;3724749;37;19715;-68
2021/06/05 11:46:44;;;;;;;;;9.00;9.00;;;;;;;;3724976;37;19742;-66
2021/06/05 11:49:30;;;;;;;;;9.75;7.25;;;;;;;;3725678;37;19687;-69
2021/06/05 11:52:19;;;;;;;;;7.50;7.50;;;;;;;;3730792;38;19687;-68
2021/06/05 11:54:49;;;;;;;;;6.75;6.75;;;;;;;;3739710;38;19694;-68
2021/06/05 11:57:25;;;;;;;;;6.25;6.25;;;;;;;;3740987;37;19664;-69
2021/06/05 11:59:51;;;;;;;;;6.00;6.00;;;;;;;;3726535;37;19666;-66
2021/06/05 12:02:27;;;;;;;;;6.25;6.25;;;;;;;;3725094;37;19665;-68
2021/06/05 12:05:01;;;;;;;;;6.00;6.00;;;;;;;;3725181;38;17538;-68
2021/06/05 12:07:33;;;;;;;;;4.75;4.75;;;;;;;;3725090;38;19645;-66
2021/06/05 12:10:03;;;;;;;;;6.50;6.00;;;;;;;;3724814;37;19677;-66
2021/06/05 12:12:31;;;;;;;;;5.75;5.75;;;;;;;;3724776;37;19673;-66
2021/06/05 12:15:09;;;;;;;;;5.50;5.50;;;;;;;;3725277;38;19641;-67
2021/06/05 12:17:41;;;;;;;;;5.25;5.25;;;;;;;;3725288;37;19659;-67
2021/06/05 12:20:36;;;;;;;;;7.25;7.25;;;;;;;;3725236;38;19645;-64
2021/06/05 12:23:24;;;;;;;;;4.50;4.50;;;;;;;;3725178;37;20644;-67
2021/06/05 12:25:51;;;;;;;;;6.00;5.00;;;;;;;;3725265;38;19666;-67
2021/06/05 12:28:25;;;;;;;;;6.00;6.00;;;;;;;;3724870;37;20646;-68
2021/06/05 12:30:55;;;;;;;;;6.00;6.00;;;;;;;;3725037;38;19645;-65
2021/06/05 12:33:46;;;;;;;;;5.75;5.75;;;;;;;;3725158;37;20643;-67
2021/06/05 12:36:19;;;;;;;;;6.00;5.75;;;;;;;;3725101;38;20651;-68
2021/06/05 12:38:49;;;;;;;;;3.50;3.50;;;;;;;;3724748;38;20605;-67
2021/06/05 12:41:24;;;;;;;;;3.00;3.00;;;;;;;;3724898;37;20618;-70
2021/06/05 12:43:50;;;;;;;;;6.25;6.25;;;;;;;;3724787;38;20627;-68
2021/06/05 12:46:25;;;;;;;;;4.00;4.00;;;;;;;;3725210;37;20624;-68
2021/06/05 12:48:53;;;;;;;;;6.00;6.00;;;;;;;;3725544;37;20606;-68
2021/06/05 12:51:24;;;;;;;;;3.50;3.50;;;;;;;;3725246;37;20590;-67
2021/06/05 12:54:01;;;;;;;;;5.75;5.75;;;;;;;;3724810;37;20595;-67
2021/06/05 12:56:33;;;;;;;;;5.00;4.75;;;;;;;;3724801;37;20600;-67
2021/06/05 12:59:01;;;;;;;;;5.00;4.25;;;;;;;;3725226;37;20602;-66
2021/06/05 13:01:36;;;;;;;;;4.75;4.00;;;;;;;;3725035;37;20605;-67
2021/06/05 13:04:03;;;;;;;;;5.50;5.50;;;;;;;;3725132;37;20598;-66
2021/06/05 13:06:35;;;;;;;;;5.00;5.00;;;;;;;;3724873;38;20593;-68
2021/06/05 13:09:20;;;;;;;;;6.75;6.75;;;;;;;;3724986;37;20576;-67
2021/06/05 13:11:59;;;;;;;;;4.00;4.00;;;;;;;;3725283;38;20558;-67
2021/06/05 13:14:33;;;;;;;;;4.00;4.00;;;;;;;;3725048;38;20602;-66
2021/06/05 13:17:10;;;;;;;;;5.00;5.00;;;;;;;;3724853;38;20566;-67
2021/06/05 13:19:36;;;;;;;;;5.75;5.75;;;;;;;;3724828;38;20572;-66
2021/06/05 13:22:05;;;;;;;;;6.50;5.00;;;;;;;;3725204;38;20557;-66
2021/06/05 13:24:32;;;;;;;;;6.00;6.00;;;;;;;;3725195;37;20573;-68
2021/06/05 13:27:16;;;;;;;;;6.00;5.75;;;;;;;;3725749;38;20572;-65
2021/06/05 13:29:49;;;;;;;;;5.00;5.00;;;;;;;;3726329;38;20571;-67
2021/06/05 13:32:44;;;;;;;;;3.50;3.50;;;;;;;;3726076;38;20551;-67
2021/06/05 13:35:17;;;;;;;;;5.00;5.00;;;;;;;;3725955;38;20551;-67
2021/06/05 13:37:55;;;;;;;;;5.00;5.00;;;;;;;;3725418;37;20547;-66
2021/06/05 13:40:22;;;;;;;;;4.75;4.75;;;;;;;;3725549;38;20529;-68
2021/06/05 13:42:50;;;;;;;;;7.25;7.25;;;;;;;;3725913;38;20534;-66
2021/06/05 13:45:19;;;;;;;;;5.50;5.50;;;;;;;;3725624;38;20523;-67
2021/06/05 13:47:46;;;;;;;;;5.25;5.25;;;;;;;;3725275;37;20558;-66
2021/06/05 13:50:19;;;;;;;;;4.25;4.00;;;;;;;;3725728;38;20515;-65
2021/06/05 13:52:46;;;;;;;;;4.75;4.75;;;;;;;;3726334;37;20513;-65
2021/06/05 13:55:36;;;;;;;;;5.25;5.25;;;;;;;;3725874;38;20507;-65
2021/06/05 13:58:02;;;;;;;;;4.75;4.75;;;;;;;;3725821;37;20549;-66
2021/06/05 14:00:29;;;;;;;;;6.50;5.75;;;;;;;;3727128;37;20511;-67
2021/06/05 14:02:55;;;;;;;;;5.00;5.00;;;;;;;;3725400;37;20509;-67
2021/06/05 14:05:21;;;;;;;;;7.00;6.00;;;;;;;;3725330;38;20519;-68
2021/06/05 14:07:48;;;;;;;;;5.25;5.00;;;;;;;;3725338;37;18376;-67
2021/06/05 14:10:16;;;;;;;;;5.25;5.25;;;;;;;;3725283;37;20494;-68
2021/06/05 14:12:42;;;;;;;;;4.50;4.50;;;;;;;;3724860;37;20483;-67
2021/06/05 14:15:15;;;;;;;;;6.00;6.00;;;;;;;;3725241;38;20539;-66
2021/06/05 14:17:42;;;;;;;;;6.00;6.00;;;;;;;;3724806;37;20578;-67
2021/06/05 14:20:08;;;;;;;;;5.00;5.00;;;;;;;;3724792;37;20482;-67
2021/06/05 14:22:34;;;;;;;;;6.00;6.00;;;;;;;;3724793;38;20483;-68
2021/06/05 14:25:05;;;;;;;;;12.50;12.50;;;;;;;;3725261;38;20588;-68
2021/06/05 14:27:31;;;;;;;;;5.25;5.25;;;;;;;;3724871;38;20520;-66
2021/06/05 14:29:57;;;;;;;;;5.25;5.00;;;;;;;;3725623;37;20461;-68
2021/06/05 14:32:25;;;;;;;;;7.50;5.75;;;;;;;;3725135;37;20463;-67
2021/06/05 14:34:51;;;;;;;;;4.50;4.50;;;;;;;;3725379;37;20473;-66
2021/06/05 14:37:17;;;;;;;;;6.00;6.00;;;;;;;;3725414;37;20451;-66
2021/06/05 14:39:46;;;;;;;;;5.50;4.75;;;;;;;;3725354;37;18299;-67
2021/06/05 14:42:17;;;;;;;;;5.75;5.50;;;;;;;;3724997;38;20451;-67
2021/06/05 14:44:44;;;;;;;;;6.75;6.00;;;;;;;;3724997;37;20429;-66
2021/06/05 14:47:11;;;;;;;;;2.25;2.25;;;;;;;;3725246;37;20462;-67
2021/06/05 14:49:44;;;;;;;;;5.75;5.75;;;;;;;;3725244;37;20435;-68